Time;durP1;ratioP1;P1;durP2;ratioP2;P2;SDS_P1;SDS_P2;PMS_P1;PMS_P2;Temp;Humidity;BMP_temperature;BMP_pressure;BME280_temperature;BME280_humidity;BME280_pressure;Samples;Min_cycle;Max_cycle;Signal;HPM_P1;HPM_P2
2022/03/09 00:01:29;;;;;;;7.03;3.88;;;4.30;99.90;;;;;;4976758;28;20185;-70
2022/03/09 00:03:56;;;;;;;5.60;4.05;;;4.30;99.90;;;;;;4997200;28;20042;-70
2022/03/09 00:06:21;;;;;;;5.30;4.03;;;4.40;99.90;;;;;;4992801;28;20046;-70
2022/03/09 00:08:47;;;;;;;6.03;3.78;;;4.40;99.90;;;;;;4992300;28;20066;-70
2022/03/09 00:11:13;;;;;;;4.97;3.50;;;4.40;99.90;;;;;;4991174;28;20046;-70
2022/03/09 00:13:38;;;;;;;5.97;3.70;;;4.40;99.90;;;;;;4990266;28;20110;-70
2022/03/09 00:16:04;;;;;;;5.50;4.25;;;4.50;99.90;;;;;;4991246;28;20612;-70
2022/03/09 00:18:30;;;;;;;7.53;4.13;;;4.50;99.90;;;;;;4991139;28;20054;-70
2022/03/09 00:20:55;;;;;;;5.68;3.75;;;4.50;99.90;;;;;;4994432;28;20082;-70
2022/03/09 00:23:21;;;;;;;7.15;4.07;;;4.50;99.90;;;;;;4995021;28;20051;-70
2022/03/09 00:25:47;;;;;;;7.32;4.50;;;4.60;99.90;;;;;;4992097;28;20047;-70
2022/03/09 00:28:13;;;;;;;6.72;3.88;;;4.60;99.90;;;;;;4991401;28;20039;-70
2022/03/09 00:30:38;;;;;;;4.30;3.55;;;4.60;99.90;;;;;;4996432;28;20039;-71
2022/03/09 00:33:04;;;;;;;7.25;4.00;;;4.60;99.90;;;;;;4991985;28;20275;-70
2022/03/09 00:35:30;;;;;;;6.43;4.47;;;4.50;99.90;;;;;;4990270;28;20467;-70
2022/03/09 00:37:55;;;;;;;7.15;4.40;;;4.20;99.90;;;;;;4985214;28;20119;-71
2022/03/09 00:40:22;;;;;;;5.75;4.13;;;3.90;99.90;;;;;;4996612;28;20042;-70
2022/03/09 00:42:48;;;;;;;5.63;4.28;;;3.50;99.90;;;;;;4991521;28;20062;-70
2022/03/09 00:45:14;;;;;;;6.22;4.00;;;3.20;99.90;;;;;;4976390;28;20096;-70
2022/03/09 00:47:40;;;;;;;5.47;4.00;;;3.00;99.90;;;;;;4993333;28;20067;-71
2022/03/09 00:50:06;;;;;;;8.50;5.07;;;2.80;99.90;;;;;;4994140;28;20051;-71
2022/03/09 00:52:32;;;;;;;7.40;4.85;;;2.70;99.90;;;;;;4986723;28;20126;-71
2022/03/09 00:54:58;;;;;;;5.70;4.20;;;2.80;99.90;;;;;;4992944;28;20047;-71
2022/03/09 00:57:24;;;;;;;7.13;4.60;;;2.80;99.90;;;;;;4992427;28;20141;-71
2022/03/09 00:59:50;;;;;;;6.93;4.45;;;2.80;99.90;;;;;;4986941;28;20047;-71
2022/03/09 01:02:17;;;;;;;7.15;4.57;;;2.90;99.90;;;;;;4988231;28;20050;-71
2022/03/09 01:04:43;;;;;;;6.03;4.55;;;2.90;99.90;;;;;;4993090;28;20074;-71
2022/03/09 01:07:09;;;;;;;6.93;4.28;;;3.00;99.90;;;;;;4988282;28;20042;-71
2022/03/09 01:09:34;;;;;;;7.75;4.38;;;3.00;99.90;;;;;;4989687;28;20051;-71
2022/03/09 01:12:00;;;;;;;6.20;4.65;;;3.20;99.90;;;;;;4986198;28;20114;-71
2022/03/09 01:14:26;;;;;;;6.68;4.63;;;3.30;99.90;;;;;;4987483;28;20051;-71
2022/03/09 01:16:52;;;;;;;7.35;4.60;;;3.40;99.90;;;;;;4986235;28;20110;-71
2022/03/09 01:19:17;;;;;;;6.60;4.53;;;3.60;99.90;;;;;;4986305;28;20043;-71
2022/03/09 01:21:43;;;;;;;7.63;4.47;;;3.60;99.90;;;;;;4988581;28;20138;-71
2022/03/09 01:24:09;;;;;;;6.22;4.43;;;3.70;99.90;;;;;;4989373;28;20479;-71
2022/03/09 01:26:35;;;;;;;7.05;4.68;;;3.70;99.90;;;;;;4988594;28;20050;-71
2022/03/09 01:29:00;;;;;;;7.53;4.57;;;3.80;99.90;;;;;;4988297;28;20078;-71
2022/03/09 01:31:26;;;;;;;8.00;5.25;;;3.70;99.90;;;;;;4987218;28;20139;-71
2022/03/09 01:33:52;;;;;;;7.55;4.80;;;3.80;99.90;;;;;;4972610;28;20039;-71
2022/03/09 01:36:18;;;;;;;7.90;5.10;;;3.70;99.90;;;;;;4990091;28;20058;-71
2022/03/09 01:38:43;;;;;;;7.05;4.47;;;3.70;99.90;;;;;;4987157;28;20058;-71
2022/03/09 01:41:11;;;;;;;6.28;5.35;;;3.70;99.90;;;;;;4974741;28;20046;-71
2022/03/09 01:43:40;;;;;;;8.02;5.50;;;3.70;99.90;;;;;;4980680;28;20122;-70
2022/03/09 01:46:06;;;;;;;6.40;4.82;;;3.60;99.90;;;;;;4990845;28;20042;-71
2022/03/09 01:48:32;;;;;;;7.10;5.35;;;3.50;99.90;;;;;;4971228;28;20062;-71
2022/03/09 01:50:58;;;;;;;8.80;5.32;;;3.50;99.90;;;;;;4972462;28;20170;-71
2022/03/09 01:53:23;;;;;;;8.20;5.25;;;3.50;99.90;;;;;;4989795;28;20057;-71
2022/03/09 01:55:49;;;;;;;7.80;5.07;;;3.40;99.90;;;;;;4987902;28;20095;-71
2022/03/09 01:58:15;;;;;;;8.63;4.60;;;3.50;99.90;;;;;;4972696;28;20061;-71
2022/03/09 02:00:40;;;;;;;9.00;5.20;;;3.40;99.90;;;;;;4990544;28;20038;-71
2022/03/09 02:03:06;;;;;;;9.38;5.20;;;3.50;99.90;;;;;;4986355;28;20054;-71
2022/03/09 02:05:34;;;;;;;7.25;5.60;;;3.60;99.90;;;;;;4986006;28;20105;-71
2022/03/09 02:10:46;;;;;;;8.77;5.45;;;3.50;99.90;;;;;;4987449;28;20057;-71
2022/03/09 02:13:11;;;;;;;9.30;5.78;;;3.50;99.90;;;;;;4984825;28;20047;-71
2022/03/09 02:15:37;;;;;;;7.22;5.10;;;3.50;99.90;;;;;;4986105;28;20046;-70
2022/03/09 02:18:04;;;;;;;7.97;5.60;;;3.30;99.90;;;;;;4986821;28;20050;-71
2022/03/09 02:20:29;;;;;;;8.27;5.85;;;3.20;99.90;;;;;;4995284;28;20046;-71
2022/03/09 02:22:56;;;;;;;9.57;5.88;;;3.10;99.90;;;;;;4987314;28;20051;-71
2022/03/09 02:25:22;;;;;;;6.57;5.07;;;2.90;99.90;;;;;;4984331;28;20083;-70
2022/03/09 02:27:48;;;;;;;7.80;4.78;;;2.80;99.90;;;;;;4986228;28;20074;-70
2022/03/09 02:30:16;;;;;;;9.05;5.80;;;2.70;99.90;;;;;;4987716;28;20073;-70
2022/03/09 02:32:44;;;;;;;9.73;5.60;;;2.70;99.90;;;;;;4988441;28;20129;-70
2022/03/09 02:35:11;;;;;;;8.68;5.95;;;2.60;99.90;;;;;;4993537;28;20096;-70
2022/03/09 02:37:38;;;;;;;7.43;5.55;;;2.50;99.90;;;;;;4984961;28;20670;-70
2022/03/09 02:40:09;;;;;;;7.82;5.75;;;2.50;99.90;;;;;;4987764;28;20042;-70
2022/03/09 02:42:35;;;;;;;8.93;6.22;;;2.50;99.90;;;;;;4990055;28;20055;-70
2022/03/09 02:45:02;;;;;;;7.95;5.85;;;2.50;99.90;;;;;;4983029;28;20046;-70
2022/03/09 02:47:27;;;;;;;9.60;6.00;;;2.50;99.90;;;;;;4984191;28;20573;-71
2022/03/09 02:49:53;;;;;;;7.32;5.47;;;2.50;99.90;;;;;;4989400;28;20110;-70
2022/03/09 02:52:19;;;;;;;9.45;5.65;;;2.40;99.90;;;;;;4984961;28;20086;-71
2022/03/09 02:54:44;;;;;;;9.80;6.03;;;2.50;99.90;;;;;;4985845;28;20039;-71
2022/03/09 02:57:10;;;;;;;8.20;6.03;;;2.50;99.90;;;;;;4990051;28;20054;-71
2022/03/09 02:59:36;;;;;;;9.20;6.25;;;2.60;99.90;;;;;;4987367;28;20109;-71
2022/03/09 03:02:02;;;;;;;10.80;6.18;;;2.60;99.90;;;;;;4972461;28;20043;-71
2022/03/09 03:04:28;;;;;;;12.43;6.07;;;2.60;99.90;;;;;;4987498;28;20062;-71
2022/03/09 03:06:54;;;;;;;13.10;6.80;;;2.60;99.90;;;;;;4985568;28;20054;-70
2022/03/09 03:09:19;;;;;;;9.02;6.43;;;2.60;99.90;;;;;;4989577;28;20082;-71
2022/03/09 03:11:45;;;;;;;10.13;6.28;;;2.50;99.90;;;;;;4990977;28;20055;-70
2022/03/09 03:14:11;;;;;;;10.35;6.47;;;2.50;99.90;;;;;;4985813;28;20039;-70
2022/03/09 03:16:37;;;;;;;10.43;6.50;;;2.50;99.90;;;;;;4987174;28;20047;-69
2022/03/09 03:19:03;;;;;;;9.93;6.30;;;2.50;99.90;;;;;;4986544;28;20046;-69
2022/03/09 03:21:29;;;;;;;11.63;6.70;;;2.60;99.90;;;;;;4990599;28;20053;-70
2022/03/09 03:23:54;;;;;;;10.40;6.60;;;2.60;99.90;;;;;;4983360;28;20082;-70
2022/03/09 03:26:20;;;;;;;9.45;6.30;;;2.60;99.90;;;;;;4985416;28;20054;-70
2022/03/09 03:28:46;;;;;;;8.45;6.47;;;2.70;99.90;;;;;;4987094;28;20047;-70
2022/03/09 03:31:12;;;;;;;10.93;6.50;;;2.70;99.90;;;;;;4990529;28;20419;-70
2022/03/09 03:33:37;;;;;;;9.90;7.00;;;2.70;99.90;;;;;;4989467;28;20427;-70
2022/03/09 03:36:03;;;;;;;11.60;7.20;;;2.70;99.90;;;;;;4986184;28;20043;-71
2022/03/09 03:38:29;;;;;;;11.35;7.13;;;2.70;99.90;;;;;;4984943;28;20043;-70
2022/03/09 03:40:55;;;;;;;11.30;7.20;;;2.70;99.90;;;;;;4986759;28;20070;-70
2022/03/09 03:43:20;;;;;;;11.32;6.85;;;2.80;99.90;;;;;;4985357;28;20073;-71
2022/03/09 03:45:46;;;;;;;11.30;6.50;;;2.80;99.90;;;;;;4984057;28;20141;-71
2022/03/09 03:48:12;;;;;;;12.60;7.63;;;2.80;99.90;;;;;;4986986;28;20069;-71
2022/03/09 03:50:38;;;;;;;11.60;6.35;;;2.90;99.90;;;;;;4971274;28;20055;-71
2022/03/09 03:53:03;;;;;;;10.75;6.13;;;2.80;99.90;;;;;;4986462;28;20104;-71
2022/03/09 03:55:29;;;;;;;11.45;6.88;;;2.80;99.90;;;;;;4986245;28;20111;-71
2022/03/09 03:57:55;;;;;;;10.02;6.95;;;2.70;99.90;;;;;;4991364;28;20054;-71
2022/03/09 04:00:23;;;;;;;11.00;6.53;;;2.80;99.90;;;;;;4985267;28;20137;-71
2022/03/09 04:02:50;;;;;;;12.05;7.03;;;2.60;99.90;;;;;;4986381;28;20043;-71
2022/03/09 04:05:15;;;;;;;11.68;6.90;;;2.50;99.90;;;;;;4987339;28;20507;-71
2022/03/09 04:07:41;;;;;;;11.38;7.13;;;2.50;99.90;;;;;;4986937;28;20053;-70
2022/03/09 04:10:07;;;;;;;9.90;6.70;;;2.40;99.90;;;;;;4985728;28;20047;-70
2022/03/09 04:12:34;;;;;;;10.80;7.45;;;2.20;99.90;;;;;;4986445;28;20050;-70
2022/03/09 04:14:59;;;;;;;11.82;7.53;;;2.10;99.90;;;;;;4973270;28;20043;-71
2022/03/09 04:17:25;;;;;;;10.60;6.93;;;2.00;99.90;;;;;;4988412;28;20054;-71
2022/03/09 04:19:51;;;;;;;10.48;7.30;;;2.00;99.90;;;;;;4984344;28;20046;-71
2022/03/09 04:22:16;;;;;;;10.43;7.40;;;1.90;99.90;;;;;;4986723;28;20130;-70
2022/03/09 04:24:42;;;;;;;13.02;7.38;;;1.80;99.90;;;;;;4978346;28;20111;-70
2022/03/09 04:27:08;;;;;;;12.18;7.18;;;1.70;99.90;;;;;;4992084;28;20420;-70
2022/03/09 04:29:34;;;;;;;10.25;6.82;;;1.60;99.90;;;;;;4988177;28;20078;-70
2022/03/09 04:31:59;;;;;;;9.48;7.00;;;1.60;99.90;;;;;;4991153;28;20046;-70
2022/03/09 04:34:25;;;;;;;11.45;7.95;;;1.60;99.90;;;;;;4991416;28;20139;-70
2022/03/09 04:36:51;;;;;;;10.85;7.22;;;1.60;99.90;;;;;;4989906;28;20043;-70
2022/03/09 04:39:16;;;;;;;10.30;7.75;;;1.60;99.90;;;;;;4989365;28;20081;-70
2022/03/09 04:41:42;;;;;;;12.73;7.95;;;1.60;99.90;;;;;;4995571;28;20058;-70
2022/03/09 04:44:08;;;;;;;11.85;6.95;;;1.60;99.90;;;;;;4986993;28;20047;-70
2022/03/09 04:46:34;;;;;;;12.77;7.68;;;1.70;99.90;;;;;;4987863;28;20105;-70
2022/03/09 04:49:00;;;;;;;10.68;7.63;;;1.70;99.90;;;;;;4972485;28;20121;-70
2022/03/09 04:51:25;;;;;;;10.48;7.60;;;1.80;99.90;;;;;;4989776;28;20039;-70
2022/03/09 04:53:51;;;;;;;14.10;8.52;;;1.80;99.90;;;;;;4990185;28;20055;-70
2022/03/09 04:56:17;;;;;;;11.95;7.45;;;1.90;99.90;;;;;;4971132;28;20074;-70
2022/03/09 04:58:43;;;;;;;11.10;7.57;;;2.00;99.90;;;;;;4986734;28;20078;-70
2022/03/09 05:01:09;;;;;;;9.75;7.60;;;2.00;99.90;;;;;;4987369;28;20035;-70
2022/03/09 05:03:37;;;;;;;10.82;6.68;;;2.00;99.90;;;;;;4987526;28;20060;-70
2022/03/09 05:06:03;;;;;;;12.02;8.00;;;2.00;99.90;;;;;;4990615;28;20108;-70
2022/03/09 05:08:29;;;;;;;12.18;8.00;;;2.10;99.90;;;;;;4990674;28;20057;-70
2022/03/09 05:10:54;;;;;;;12.57;8.20;;;2.10;99.90;;;;;;4987389;28;20070;-70
2022/03/09 05:13:20;;;;;;;10.85;7.50;;;2.00;99.90;;;;;;4994785;28;20089;-70
2022/03/09 05:15:46;;;;;;;11.77;7.50;;;1.90;99.90;;;;;;4990202;28;20047;-70
2022/03/09 05:18:12;;;;;;;12.15;7.72;;;1.90;99.90;;;;;;4987944;28;20043;-70
2022/03/09 05:20:38;;;;;;;12.27;8.27;;;1.80;99.90;;;;;;4989649;28;20514;-70
2022/03/09 05:23:04;;;;;;;10.30;7.68;;;1.80;99.90;;;;;;4987122;28;20062;-70
2022/03/09 05:25:30;;;;;;;12.55;8.45;;;1.80;99.90;;;;;;4991913;28;20059;-70
2022/03/09 05:27:56;;;;;;;10.55;8.15;;;1.80;99.90;;;;;;4989970;28;20093;-70
2022/03/09 05:30:21;;;;;;;10.85;7.70;;;1.80;99.90;;;;;;4987291;28;20106;-70
2022/03/09 05:32:47;;;;;;;12.63;7.75;;;1.80;99.90;;;;;;4992923;28;20053;-70
2022/03/09 05:35:13;;;;;;;11.30;7.50;;;1.80;99.90;;;;;;4985961;28;20042;-70
2022/03/09 05:37:41;;;;;;;15.10;8.93;;;1.70;99.90;;;;;;4987829;28;20107;-70
2022/03/09 05:40:09;;;;;;;11.52;7.60;;;1.60;99.90;;;;;;4980319;28;20050;-70
2022/03/09 05:42:35;;;;;;;10.98;7.18;;;1.60;99.90;;;;;;4969937;28;20210;-70
2022/03/09 05:45:01;;;;;;;13.93;8.40;;;1.60;99.90;;;;;;4985890;28;20051;-70
2022/03/09 05:47:26;;;;;;;12.80;8.48;;;1.60;99.90;;;;;;4985883;28;20054;-70
2022/03/09 05:49:52;;;;;;;11.75;8.25;;;1.60;99.90;;;;;;4986543;28;20536;-70
2022/03/09 05:52:19;;;;;;;12.30;8.18;;;1.50;99.90;;;;;;4992167;28;20087;-70
2022/03/09 05:54:45;;;;;;;11.60;7.82;;;1.50;99.90;;;;;;4986510;28;20604;-70
2022/03/09 05:57:19;;;;;;;12.38;8.90;;;1.60;99.90;;;;;;4990750;28;20053;-70
2022/03/09 05:59:44;;;;;;;12.02;8.45;;;1.50;99.90;;;;;;4986019;28;20065;-70
2022/03/09 06:02:10;;;;;;;14.43;8.18;;;1.60;99.90;;;;;;4989370;28;20046;-70
2022/03/09 06:04:36;;;;;;;11.80;7.95;;;1.60;99.90;;;;;;4990900;28;20055;-70
2022/03/09 06:07:02;;;;;;;13.43;9.15;;;1.60;99.90;;;;;;4974533;28;20098;-70
2022/03/09 06:09:28;;;;;;;12.18;7.90;;;1.70;99.90;;;;;;4993436;28;20050;-70
2022/03/09 06:11:54;;;;;;;12.20;7.97;;;1.60;99.90;;;;;;4988834;28;20120;-69
2022/03/09 06:14:20;;;;;;;13.20;8.82;;;1.60;99.90;;;;;;4985394;28;20043;-70
2022/03/09 06:16:48;;;;;;;15.32;9.65;;;1.60;99.90;;;;;;4987234;28;20057;-70
2022/03/09 06:19:16;;;;;;;13.88;8.35;;;1.70;99.90;;;;;;4986819;28;20050;-70
2022/03/09 06:21:42;;;;;;;11.70;7.55;;;1.70;99.90;;;;;;4987706;28;20086;-67
2022/03/09 06:24:08;;;;;;;12.80;8.07;;;1.70;99.90;;;;;;4931105;28;20274;-67
2022/03/09 06:26:34;;;;;;;12.10;7.50;;;1.70;99.90;;;;;;4969901;28;20055;-70
2022/03/09 06:29:00;;;;;;;14.80;8.50;;;1.70;99.90;;;;;;4966416;28;20050;-70
2022/03/09 06:31:25;;;;;;;12.95;8.95;;;1.70;99.90;;;;;;4984451;28;20082;-71
2022/03/09 06:33:51;;;;;;;18.73;10.48;;;1.70;99.90;;;;;;4964716;28;20046;-71
2022/03/09 06:36:17;;;;;;;15.00;9.65;;;1.70;99.90;;;;;;4971961;28;20038;-70
2022/03/09 06:38:43;;;;;;;12.52;8.68;;;1.60;99.90;;;;;;4983757;28;20144;-70
2022/03/09 06:41:08;;;;;;;12.95;9.52;;;1.60;99.90;;;;;;4993987;28;20049;-69
2022/03/09 06:43:34;;;;;;;15.70;8.80;;;1.60;99.90;;;;;;4987761;28;20060;-70
2022/03/09 06:46:00;;;;;;;15.05;8.18;;;1.60;99.90;;;;;;4980032;28;20046;-70
2022/03/09 06:48:26;;;;;;;15.15;8.45;;;1.70;99.90;;;;;;4984265;28;20041;-69
2022/03/09 06:50:53;;;;;;;14.48;8.73;;;1.70;99.90;;;;;;4991412;28;20081;-67
2022/03/09 06:53:18;;;;;;;14.13;9.27;;;1.70;99.90;;;;;;4983853;28;20058;-71
2022/03/09 06:55:44;;;;;;;18.80;12.18;;;1.60;99.90;;;;;;4968664;28;20050;-71
2022/03/09 06:58:10;;;;;;;16.27;10.65;;;1.60;99.90;;;;;;4994827;28;20121;-73
2022/03/09 07:00:36;;;;;;;14.85;8.57;;;1.70;99.90;;;;;;4984797;28;20075;-74
2022/03/09 07:03:05;;;;;;;17.58;10.73;;;1.70;99.90;;;;;;4970682;28;20109;-74
2022/03/09 07:05:34;;;;;;;14.60;9.65;;;1.80;99.90;;;;;;4983409;28;20103;-74
2022/03/09 07:08:00;;;;;;;13.30;8.63;;;1.80;99.90;;;;;;4967789;28;20038;-74
2022/03/09 07:10:26;;;;;;;13.82;8.77;;;1.90;99.90;;;;;;4983875;28;20066;-73
2022/03/09 07:12:52;;;;;;;13.70;8.77;;;2.00;99.90;;;;;;4985579;28;20045;-75
2022/03/09 07:15:18;;;;;;;13.23;8.43;;;2.00;99.90;;;;;;4983740;28;20514;-75
2022/03/09 07:17:46;;;;;;;13.82;8.85;;;2.00;99.90;;;;;;4986618;28;20110;-75
2022/03/09 07:20:12;;;;;;;18.02;9.98;;;2.10;99.90;;;;;;4966305;28;20157;-75
2022/03/09 07:22:42;;;;;;;13.93;8.95;;;2.10;99.90;;;;;;4987536;28;20045;-71
2022/03/09 07:25:09;;;;;;;16.05;10.23;;;2.10;99.90;;;;;;4982789;28;20108;-71
2022/03/09 07:27:35;;;;;;;17.05;10.13;;;2.10;99.90;;;;;;4984256;28;20058;-69
2022/03/09 07:30:02;;;;;;;14.32;9.63;;;2.10;99.90;;;;;;4979148;28;20098;-68
2022/03/09 07:32:28;;;;;;;13.30;9.25;;;2.10;99.90;;;;;;4971851;28;20057;-69
2022/03/09 07:34:53;;;;;;;12.38;8.30;;;2.20;99.90;;;;;;4969344;28;20204;-68
2022/03/09 07:37:19;;;;;;;14.20;9.30;;;2.30;99.90;;;;;;4976678;28;20046;-70
2022/03/09 07:39:45;;;;;;;12.02;8.40;;;2.30;99.90;;;;;;4985911;28;20051;-70
2022/03/09 07:42:10;;;;;;;13.02;8.98;;;2.40;99.90;;;;;;4983804;28;20043;-71
2022/03/09 07:44:36;;;;;;;15.02;8.68;;;2.40;99.90;;;;;;4981255;28;20055;-69
2022/03/09 07:47:02;;;;;;;16.45;9.82;;;2.40;99.90;;;;;;4983343;28;20035;-69
2022/03/09 07:49:28;;;;;;;18.02;11.18;;;2.50;99.90;;;;;;4984610;28;20073;-69
2022/03/09 07:51:54;;;;;;;14.77;9.85;;;2.50;99.90;;;;;;4980520;28;20261;-70
2022/03/09 07:54:19;;;;;;;13.88;9.13;;;2.60;99.90;;;;;;4970899;28;20053;-69
2022/03/09 07:56:45;;;;;;;15.70;9.02;;;2.80;99.90;;;;;;4976228;28;20141;-70
2022/03/09 07:59:11;;;;;;;13.70;9.05;;;2.90;99.90;;;;;;4967587;28;20614;-70
2022/03/09 08:01:40;;;;;;;12.95;9.05;;;2.90;99.90;;;;;;4981644;28;20083;-70
2022/03/09 08:04:07;;;;;;;13.48;9.48;;;3.00;99.90;;;;;;4974699;28;20058;-70
2022/03/09 08:06:33;;;;;;;14.45;8.63;;;3.20;99.90;;;;;;4979242;28;20038;-70
2022/03/09 08:08:59;;;;;;;13.57;8.63;;;3.20;99.90;;;;;;4957519;28;20077;-72
2022/03/09 08:11:24;;;;;;;14.85;9.02;;;3.30;99.90;;;;;;4968796;28;20089;-69
2022/03/09 08:13:50;;;;;;;14.27;8.38;;;3.30;99.90;;;;;;4969970;28;20505;-69
2022/03/09 08:16:16;;;;;;;12.10;9.00;;;3.40;99.90;;;;;;4977848;28;20051;-69
2022/03/09 08:18:41;;;;;;;15.30;9.27;;;3.50;99.90;;;;;;4968206;28;20054;-69
2022/03/09 08:21:07;;;;;;;12.10;8.75;;;3.50;99.90;;;;;;4963863;28;20138;-69
2022/03/09 08:23:33;;;;;;;12.80;9.10;;;3.50;99.90;;;;;;4962235;28;20143;-69
2022/03/09 08:25:58;;;;;;;13.35;8.57;;;3.60;99.90;;;;;;4977945;28;20107;-69
2022/03/09 08:28:24;;;;;;;13.98;8.82;;;3.70;99.90;;;;;;4947540;28;20382;-69
2022/03/09 08:30:50;;;;;;;14.90;9.40;;;3.80;99.90;;;;;;4956343;28;20055;-69
2022/03/09 08:33:16;;;;;;;13.70;9.25;;;3.90;99.90;;;;;;4972846;28;20057;-69
2022/03/09 08:35:42;;;;;;;16.42;9.60;;;3.90;99.90;;;;;;4981121;28;20047;-70
2022/03/09 08:38:08;;;;;;;14.15;10.02;;;3.90;99.90;;;;;;4975711;28;20487;-70
2022/03/09 08:40:33;;;;;;;12.10;8.60;;;4.00;99.90;;;;;;4966126;28;20133;-70
2022/03/09 08:42:59;;;;;;;15.23;9.45;;;4.10;99.90;;;;;;4980899;28;20043;-70
2022/03/09 08:45:25;;;;;;;13.68;8.30;;;4.10;99.90;;;;;;4988354;28;20126;-69
2022/03/09 08:47:52;;;;;;;13.75;9.40;;;4.20;99.90;;;;;;4956751;28;20069;-70
2022/03/09 08:50:17;;;;;;;11.75;8.57;;;4.30;99.90;;;;;;4990364;28;20043;-70
2022/03/09 08:52:43;;;;;;;15.07;9.27;;;4.40;99.90;;;;;;4982340;28;20058;-70
2022/03/09 08:55:09;;;;;;;12.00;8.77;;;4.50;99.90;;;;;;4985592;28;20051;-69
2022/03/09 08:57:35;;;;;;;13.15;9.13;;;4.60;99.90;;;;;;4967295;28;20073;-69
2022/03/09 09:00:04;;;;;;;13.60;8.52;;;4.70;99.90;;;;;;4969966;28;20067;-69
2022/03/09 09:02:30;;;;;;;11.23;8.53;;;4.90;99.90;;;;;;4970848;28;20714;-69
2022/03/09 09:04:57;;;;;;;13.95;8.60;;;5.00;99.90;;;;;;4935666;28;20046;-70
2022/03/09 09:07:23;;;;;;;16.52;9.25;;;5.10;99.90;;;;;;4981636;28;20109;-70
2022/03/09 09:09:49;;;;;;;13.68;8.60;;;5.20;99.90;;;;;;4977162;28;20182;-70
2022/03/09 09:12:15;;;;;;;12.85;8.35;;;5.50;99.90;;;;;;4964363;28;20078;-69
2022/03/09 09:14:41;;;;;;;13.45;8.88;;;5.60;99.90;;;;;;4979257;28;20133;-78
2022/03/09 09:17:07;;;;;;;11.98;7.72;;;5.80;99.90;;;;;;4966421;28;20174;-67
2022/03/09 09:19:33;;;;;;;14.50;8.45;;;5.80;99.90;;;;;;4982279;28;20169;-64
2022/03/09 09:22:01;;;;;;;12.57;8.25;;;6.10;99.90;;;;;;4967984;28;20452;-66
2022/03/09 09:24:27;;;;;;;11.05;8.15;;;6.20;99.90;;;;;;4990675;28;20310;-67
2022/03/09 09:26:53;;;;;;;12.57;8.70;;;6.30;99.90;;;;;;4985016;28;20050;-67
2022/03/09 09:29:19;;;;;;;13.52;8.70;;;6.50;99.90;;;;;;4966286;28;20054;-67
2022/03/09 09:31:48;;;;;;;13.02;8.05;;;6.60;99.90;;;;;;4987470;28;20054;-68
2022/03/09 09:34:15;;;;;;;11.98;8.20;;;6.80;99.90;;;;;;4972989;28;20104;-68
2022/03/09 09:36:44;;;;;;;12.10;8.20;;;6.90;99.90;;;;;;4981200;28;20388;-69
2022/03/09 09:39:13;;;;;;;13.02;8.15;;;7.10;99.90;;;;;;4970056;28;20101;-69
2022/03/09 09:41:43;;;;;;;10.60;7.55;;;7.30;99.90;;;;;;4981423;28;20054;-68
2022/03/09 09:44:13;;;;;;;10.23;7.43;;;7.40;99.90;;;;;;4980395;28;20054;-72
2022/03/09 09:46:41;;;;;;;11.43;7.43;;;7.60;99.90;;;;;;4985298;28;20314;-68
2022/03/09 09:49:13;;;;;;;11.60;8.15;;;8.00;96.10;;;;;;4974542;28;20046;-69
2022/03/09 09:51:40;;;;;;;12.95;8.48;;;8.20;88.80;;;;;;4990327;28;20110;-69
2022/03/09 09:54:07;;;;;;;12.93;8.02;;;8.40;79.20;;;;;;4973929;28;20050;-69
2022/03/09 09:56:38;;;;;;;11.27;7.63;;;8.60;74.90;;;;;;4969113;28;20054;-68
2022/03/09 09:59:04;;;;;;;11.80;8.27;;;8.90;69.60;;;;;;4973771;28;20054;-69
2022/03/09 10:01:31;;;;;;;12.25;7.43;;;9.20;64.20;;;;;;4979741;28;20074;-69
2022/03/09 10:03:56;;;;;;;11.35;7.63;;;9.20;65.40;;;;;;4975304;28;20062;-68
2022/03/09 10:06:22;;;;;;;10.80;6.88;;;9.20;65.50;;;;;;4987507;28;20038;-68
2022/03/09 10:09:14;;;;;;;9.75;7.22;;;9.20;64.30;;;;;;4975544;28;20053;-68
2022/03/09 10:11:56;;;;;;;10.52;7.78;;;9.40;62.50;;;;;;4988324;28;20106;-68
2022/03/09 10:14:48;;;;;;;11.88;7.88;;;9.40;63.80;;;;;;4972952;28;20058;-68
2022/03/09 10:17:25;;;;;;;12.52;7.82;;;9.40;66.00;;;;;;4968458;28;20043;-68
2022/03/09 10:19:54;;;;;;;11.95;7.43;;;9.60;63.30;;;;;;4967323;28;20109;-68
2022/03/09 10:22:32;;;;;;;10.70;7.85;;;9.90;60.30;;;;;;4981764;28;20050;-69
2022/03/09 10:25:20;;;;;;;10.65;7.55;;;10.00;59.80;;;;;;4986982;28;20070;-69
2022/03/09 10:27:50;;;;;;;13.10;8.02;;;10.00;60.60;;;;;;4986488;28;20046;-69
2022/03/09 10:30:20;;;;;;;10.38;7.63;;;9.90;61.10;;;;;;4968837;28;20069;-68
2022/03/09 10:32:46;;;;;;;11.40;8.05;;;9.90;61.20;;;;;;4980696;28;20053;-68
2022/03/09 10:35:32;;;;;;;12.48;8.32;;;10.00;59.90;;;;;;4975129;28;20050;-68
2022/03/09 10:37:57;;;;;;;12.30;8.32;;;10.00;60.50;;;;;;4985024;28;20082;-68
2022/03/09 10:40:24;;;;;;;11.82;9.02;;;10.00;60.80;;;;;;4963190;28;20070;-68
2022/03/09 10:42:51;;;;;;;11.43;8.25;;;10.00;61.00;;;;;;4985960;28;20042;-68
2022/03/09 10:45:18;;;;;;;15.35;8.70;;;9.90;61.60;;;;;;4969105;28;20065;-68
2022/03/09 10:47:48;;;;;;;14.00;8.80;;;10.00;62.50;;;;;;4984170;28;20069;-68
2022/03/09 10:50:38;;;;;;;10.68;7.93;;;9.80;62.60;;;;;;4972445;28;20546;-68
2022/03/09 10:53:04;;;;;;;11.38;8.38;;;9.90;61.70;;;;;;4974333;28;20066;-69
2022/03/09 10:55:33;;;;;;;10.02;7.38;;;9.90;62.60;;;;;;4962929;28;20150;-68
2022/03/09 10:58:18;;;;;;;11.90;8.15;;;9.90;62.20;;;;;;4982256;28;20050;-68
2022/03/09 11:00:50;;;;;;;11.30;7.68;;;9.90;62.70;;;;;;4958823;28;20050;-68
2022/03/09 11:03:20;;;;;;;13.50;8.10;;;9.90;62.90;;;;;;4980631;28;20053;-68
2022/03/09 11:05:57;;;;;;;12.40;7.78;;;10.00;63.20;;;;;;4986559;28;20398;-68
2022/03/09 11:08:26;;;;;;;12.73;8.00;;;10.00;62.80;;;;;;4973755;28;20109;-69
2022/03/09 11:10:54;;;;;;;13.25;8.43;;;10.10;61.90;;;;;;4997424;28;20084;-68
2022/03/09 11:13:22;;;;;;;11.18;8.32;;;10.20;62.30;;;;;;4968586;28;20054;-67
2022/03/09 11:15:48;;;;;;;11.85;8.60;;;10.20;62.40;;;;;;4998921;28;20043;-67
2022/03/09 11:18:19;;;;;;;13.48;8.15;;;10.10;62.90;;;;;;4975604;28;20049;-67
2022/03/09 11:20:52;;;;;;;11.98;8.70;;;10.30;60.30;;;;;;4995922;28;20035;-68
2022/03/09 11:23:18;;;;;;;9.52;7.25;;;10.30;60.40;;;;;;4977735;28;20057;-68
2022/03/09 11:26:07;;;;;;;10.52;7.78;;;10.40;59.60;;;;;;5001612;28;20620;-67
2022/03/09 11:28:36;;;;;;;12.70;7.53;;;10.40;61.30;;;;;;4980529;28;20550;-67
2022/03/09 11:31:07;;;;;;;12.60;8.65;;;10.50;60.60;;;;;;4986382;28;20061;-67
2022/03/09 11:33:46;;;;;;;12.10;8.80;;;10.50;61.70;;;;;;4978494;28;20046;-67
2022/03/09 11:36:23;;;;;;;11.38;8.25;;;10.50;61.80;;;;;;4988308;28;20054;-67
2022/03/09 11:38:54;;;;;;;14.23;8.52;;;10.50;63.60;;;;;;4980966;28;20176;-67
2022/03/09 11:41:31;;;;;;;11.88;9.27;;;10.50;64.50;;;;;;4980310;28;21144;-67
2022/03/09 11:44:18;;;;;;;12.65;8.77;;;10.80;64.10;;;;;;4976133;28;20152;-67
2022/03/09 11:47:02;;;;;;;12.55;9.10;;;11.00;63.30;;;;;;4981698;28;20055;-68
2022/03/09 11:49:41;;;;;;;11.98;8.95;;;10.90;62.80;;;;;;4969234;28;20058;-68
2022/03/09 11:52:15;;;;;;;14.15;9.55;;;10.90;61.80;;;;;;4986428;28;20055;-68
2022/03/09 11:54:46;;;;;;;13.63;8.23;;;11.00;62.50;;;;;;4971271;28;20058;-68
2022/03/09 11:57:13;;;;;;;18.15;10.25;;;11.00;62.20;;;;;;4962650;28;20050;-68
2022/03/09 11:59:59;;;;;;;15.52;9.93;;;11.10;62.10;;;;;;4970616;28;20050;-68
2022/03/09 12:02:39;;;;;;;32.85;16.35;;;11.20;60.90;;;;;;4977429;28;20057;-68
2022/03/09 12:05:05;;;;;;;18.85;11.63;;;11.30;60.30;;;;;;4971113;28;20090;-68
2022/03/09 12:07:34;;;;;;;13.00;8.90;;;11.30;60.80;;;;;;4979074;28;20256;-68
2022/03/09 12:10:11;;;;;;;11.50;8.87;;;11.50;59.90;;;;;;4957891;28;20054;-68
2022/03/09 12:12:58;;;;;;;13.10;8.88;;;11.60;59.60;;;;;;4976041;28;20085;-68
2022/03/09 12:15:23;;;;;;;11.77;8.32;;;11.70;60.40;;;;;;4954222;28;20057;-68
2022/03/09 12:17:49;;;;;;;16.30;9.73;;;11.80;59.80;;;;;;4960082;28;20046;-68
2022/03/09 12:20:23;;;;;;;13.00;8.40;;;11.90;59.70;;;;;;4974031;28;20065;-68
2022/03/09 12:22:55;;;;;;;12.73;8.50;;;12.30;54.30;;;;;;4981576;28;20051;-68
2022/03/09 12:25:37;;;;;;;14.20;8.25;;;12.50;52.50;;;;;;4969953;28;20062;-68
2022/03/09 12:28:25;;;;;;;9.82;8.02;;;12.50;53.00;;;;;;4984832;28;20402;-68
2022/03/09 12:30:59;;;;;;;14.10;8.80;;;12.60;51.50;;;;;;4959008;28;20055;-68
2022/03/09 12:33:36;;;;;;;18.80;8.68;;;12.70;51.90;;;;;;4978050;28;20054;-68
2022/03/09 12:36:15;;;;;;;11.80;8.48;;;13.20;50.30;;;;;;4969772;28;20287;-71
2022/03/09 12:38:43;;;;;;;12.18;9.15;;;13.90;49.70;;;;;;4968924;28;20042;-69
2022/03/09 12:41:25;;;;;;;12.27;8.90;;;14.40;49.20;;;;;;4978174;28;20037;-72
2022/03/09 12:43:56;;;;;;;12.45;7.85;;;15.20;48.20;;;;;;4974287;28;20579;-73
2022/03/09 12:46:23;;;;;;;10.32;8.20;;;16.00;45.20;;;;;;4978731;28;20049;-72
2022/03/09 12:48:48;;;;;;;11.55;8.18;;;16.70;42.50;;;;;;4973897;28;20075;-72
2022/03/09 12:51:14;;;;;;;9.27;7.82;;;17.20;43.90;;;;;;4980816;28;20090;-69
2022/03/09 12:53:42;;;;;;;10.88;7.95;;;17.90;42.10;;;;;;4956093;28;20446;-69